createdAt,value
2023-05-16T00:01:03.639Z,90.51
2023-05-16T00:03:31.864Z,90.49
2023-05-16T00:06:02.648Z,91.21
2023-05-16T00:08:30.818Z,90.83
2023-05-16T00:10:58.706Z,91.15
2023-05-16T00:13:26.726Z,91.08
2023-05-16T00:15:56.252Z,90.79
2023-05-16T00:18:26.274Z,91.13
2023-05-16T00:20:55.565Z,90.89
2023-05-16T00:23:23.477Z,92.05
2023-05-16T00:25:51.433Z,91.86
2023-05-16T00:28:19.490Z,92.04
2023-05-16T00:30:47.642Z,92.11
2023-05-16T00:33:17.156Z,92.27
2023-05-16T00:35:45.257Z,92.10
2023-05-16T00:38:13.116Z,91.69
2023-05-16T00:40:41.048Z,91.76
2023-05-16T00:43:10.966Z,91.96
2023-05-16T00:45:38.949Z,92.05
2023-05-16T00:48:07.050Z,92.01
2023-05-16T00:50:37.161Z,92.17
2023-05-16T00:53:05.081Z,92.48
2023-05-16T00:55:33.067Z,92.48
2023-05-16T00:58:02.235Z,92.72
2023-05-16T01:00:31.645Z,92.82
2023-05-16T01:03:00.615Z,92.95
2023-05-16T01:05:29.689Z,92.35
2023-05-16T01:07:57.996Z,92.32
2023-05-16T01:10:32.840Z,92.79
2023-05-16T01:13:20.368Z,92.33
2023-05-16T01:16:00.392Z,92.78
2023-05-16T01:18:51.486Z,93.39
2023-05-16T01:21:50.250Z,93.71
2023-05-16T01:24:52.228Z,93.60
2023-05-16T01:27:21.678Z,93.67
2023-05-16T01:29:49.529Z,93.33
2023-05-16T01:32:17.522Z,93.32
2023-05-16T01:34:46.761Z,93.31
2023-05-16T01:37:22.416Z,93.26
2023-05-16T01:40:02.219Z,93.53
2023-05-16T01:42:35.179Z,93.43
2023-05-16T01:45:10.240Z,93.40
2023-05-16T01:47:44.365Z,93.79
2023-05-16T01:50:12.258Z,93.90
2023-05-16T01:52:50.828Z,94.75
2023-05-16T01:55:45.007Z,94.60
2023-05-16T01:58:15.528Z,94.52
2023-05-16T02:00:45.018Z,94.85
2023-05-16T02:03:13.418Z,95.01
2023-05-16T02:05:41.368Z,95.14
2023-05-16T02:08:12.268Z,95.20
2023-05-16T02:10:41.543Z,95.18
2023-05-16T02:13:09.661Z,95.60
2023-05-16T02:15:38.096Z,95.17
2023-05-16T02:18:06.293Z,95.37
2023-05-16T02:20:34.298Z,95.77
2023-05-16T02:23:03.451Z,97.09
2023-05-16T02:25:33.491Z,96.81
2023-05-16T02:28:01.404Z,96.20
2023-05-16T02:30:29.314Z,96.11
2023-05-16T02:32:57.345Z,96.09
2023-05-16T02:35:26.082Z,96.08
2023-05-16T02:37:54.417Z,96.70
2023-05-16T02:40:22.336Z,96.74
2023-05-16T02:42:50.370Z,97.40
2023-05-16T02:45:18.322Z,97.78
2023-05-16T02:47:46.219Z,98.23
2023-05-16T02:50:14.225Z,97.88
2023-05-16T02:52:42.132Z,98.65
2023-05-16T02:55:21.804Z,98.63
2023-05-16T02:57:51.169Z,98.13
2023-05-16T03:00:19.909Z,98.33
2023-05-16T03:02:48.307Z,98.34
2023-05-16T03:05:17.244Z,98.91
2023-05-16T03:07:45.528Z,99.56
2023-05-16T03:10:13.428Z,98.77
2023-05-16T03:12:41.358Z,98.75
2023-05-16T03:15:09.897Z,98.38
2023-05-16T03:17:38.374Z,98.96
2023-05-16T03:20:09.255Z,99.75
2023-05-16T03:22:37.292Z,99.79
2023-05-16T03:25:05.874Z,99.14
2023-05-16T03:27:33.863Z,99.34
2023-05-16T03:30:02.589Z,99.32
2023-05-16T03:32:30.702Z,99.49
2023-05-16T03:34:58.686Z,99.72
2023-05-16T03:37:27.171Z,99.82
2023-05-16T03:39:55.223Z,99.93
2023-05-16T03:42:23.223Z,99.73
2023-05-16T03:44:51.039Z,99.88
2023-05-16T03:47:18.969Z,100.00
2023-05-16T03:49:46.943Z,100.00
2023-05-16T03:52:14.813Z,100.00
2023-05-16T03:54:42.688Z,100.00
2023-05-16T03:57:10.699Z,100.00
2023-05-16T03:59:39.241Z,100.00
2023-05-16T04:02:08.027Z,100.00
2023-05-16T04:04:36.137Z,100.00
2023-05-16T04:07:04.288Z,100.00
2023-05-16T04:09:32.907Z,100.00
2023-05-16T04:12:03.305Z,100.00
2023-05-16T04:14:31.590Z,100.00
2023-05-16T04:16:59.926Z,100.00
2023-05-16T04:19:27.909Z,100.00
2023-05-16T04:21:55.904Z,100.00
2023-05-16T04:24:26.667Z,100.00
2023-05-16T04:26:55.452Z,100.00
2023-05-16T04:29:23.606Z,100.00
2023-05-16T04:31:51.674Z,100.00
2023-05-16T04:34:19.671Z,100.00
2023-05-16T04:36:47.740Z,100.00
2023-05-16T04:39:15.632Z,100.00
2023-05-16T04:41:43.584Z,100.00
2023-05-16T04:44:11.580Z,100.00
2023-05-16T04:46:39.919Z,100.00
2023-05-16T04:49:08.357Z,100.00
2023-05-16T04:51:36.326Z,100.00
2023-05-16T04:54:04.457Z,100.00
2023-05-16T04:56:32.392Z,100.00
2023-05-16T04:59:00.549Z,100.00
2023-05-16T05:01:28.543Z,100.00
2023-05-16T05:03:56.689Z,99.66
2023-05-16T05:06:24.638Z,98.44
2023-05-16T05:08:54.686Z,96.16
2023-05-16T05:11:23.388Z,96.38
2023-05-16T05:13:53.008Z,97.03
2023-05-16T05:16:21.227Z,97.32
2023-05-16T05:18:49.235Z,97.35
2023-05-16T05:21:18.532Z,96.44
2023-05-16T05:23:47.093Z,96.71
2023-05-16T05:26:15.433Z,96.87
2023-05-16T05:28:47.917Z,96.38
2023-05-16T05:31:22.261Z,95.84
2023-05-16T05:33:50.190Z,95.09
2023-05-16T05:36:18.163Z,94.83
2023-05-16T05:38:46.243Z,94.00
2023-05-16T05:41:14.376Z,92.70
2023-05-16T05:43:42.265Z,92.64
2023-05-16T05:46:10.367Z,91.03
2023-05-16T05:48:38.319Z,91.43
2023-05-16T05:51:07.028Z,91.12
2023-05-16T05:53:35.229Z,90.64
2023-05-16T05:56:03.185Z,88.88
2023-05-16T05:58:31.308Z,88.33
2023-05-16T06:00:59.308Z,88.24
2023-05-16T06:03:27.252Z,87.95
2023-05-16T06:05:55.238Z,89.17
2023-05-16T06:08:23.368Z,87.91
2023-05-16T06:10:51.282Z,87.33
2023-05-16T06:13:19.138Z,85.94
2023-05-16T06:15:54.278Z,84.67
2023-05-16T06:18:22.227Z,84.33
2023-05-16T06:20:50.663Z,84.61
2023-05-16T06:23:19.913Z,84.86
2023-05-16T06:25:49.236Z,85.82
2023-05-16T06:28:17.113Z,84.67
2023-05-16T06:30:45.037Z,83.75
2023-05-16T06:33:12.902Z,81.88
2023-05-16T06:35:41.007Z,80.18
2023-05-16T06:38:08.919Z,80.71
2023-05-16T06:40:37.585Z,81.52
2023-05-16T06:43:05.685Z,81.70
2023-05-16T06:45:33.616Z,81.62
2023-05-16T06:48:01.765Z,81.98
2023-05-16T06:50:29.853Z,81.42
2023-05-16T06:52:57.876Z,80.82
2023-05-16T06:55:26.074Z,80.40
2023-05-16T06:57:54.454Z,78.94
2023-05-16T07:00:22.500Z,77.82
2023-05-16T07:02:50.520Z,79.39
2023-05-16T07:05:18.922Z,78.35
2023-05-16T07:07:47.528Z,78.93
2023-05-16T07:10:16.235Z,78.67
2023-05-16T07:12:44.386Z,79.36
2023-05-16T07:15:13.188Z,79.52
2023-05-16T07:17:41.283Z,79.55
2023-05-16T07:20:13.660Z,76.81
2023-05-16T07:22:41.734Z,76.86
2023-05-16T07:25:13.018Z,76.05
2023-05-16T07:27:42.127Z,76.89
2023-05-16T07:30:13.237Z,76.19
2023-05-16T07:32:41.714Z,75.76
2023-05-16T07:35:10.648Z,76.95
2023-05-16T07:37:38.573Z,73.61
2023-05-16T07:40:07.590Z,71.28
2023-05-16T07:42:35.583Z,73.62
2023-05-16T07:45:03.952Z,74.24
2023-05-16T07:47:31.964Z,74.55
2023-05-16T07:49:59.904Z,75.20
2023-05-16T07:52:28.022Z,74.58
2023-05-16T07:54:56.144Z,73.41
2023-05-16T07:57:25.311Z,73.33
2023-05-16T07:59:53.595Z,73.08
2023-05-16T08:02:24.860Z,73.69
2023-05-16T08:04:53.017Z,72.91
2023-05-16T08:07:20.940Z,72.99
2023-05-16T08:09:48.872Z,72.53
2023-05-16T08:12:16.937Z,71.66
2023-05-16T08:14:44.893Z,72.64
2023-05-16T08:17:13.124Z,70.25
2023-05-16T08:19:41.761Z,70.83
2023-05-16T08:22:09.883Z,69.63
2023-05-16T08:24:38.104Z,67.73
2023-05-16T08:27:06.380Z,67.21
2023-05-16T08:29:34.443Z,65.27
2023-05-16T08:32:02.348Z,62.52
2023-05-16T08:34:33.600Z,63.92
2023-05-16T08:37:01.637Z,66.13
2023-05-16T08:39:31.028Z,66.01
2023-05-16T08:41:59.283Z,64.34
2023-05-16T08:44:29.086Z,65.67
2023-05-16T08:46:57.904Z,65.70
2023-05-16T08:49:28.232Z,65.99
2023-05-16T08:51:58.438Z,66.50
2023-05-16T08:54:28.176Z,66.55
2023-05-16T08:56:58.347Z,66.53
2023-05-16T08:59:26.643Z,65.94
2023-05-16T09:01:56.276Z,61.34
2023-05-16T09:04:26.269Z,59.07
2023-05-16T09:06:54.379Z,60.49
2023-05-16T09:09:22.279Z,57.23
2023-05-16T09:11:50.556Z,60.52
2023-05-16T09:14:18.599Z,60.56
2023-05-16T09:17:05.158Z,59.91
2023-05-16T09:19:41.077Z,60.25
2023-05-16T09:22:11.652Z,60.45
2023-05-16T09:24:48.755Z,60.88
2023-05-16T09:27:16.830Z,60.69
2023-05-16T09:29:49.504Z,60.67
2023-05-16T09:32:17.749Z,60.40
2023-05-16T09:34:51.668Z,60.51
2023-05-16T09:37:20.903Z,60.59
2023-05-16T09:39:51.093Z,60.07
2023-05-16T09:42:21.025Z,59.81
2023-05-16T09:44:51.860Z,60.24
2023-05-16T09:47:21.497Z,60.60
2023-05-16T09:49:53.340Z,59.20
2023-05-16T09:52:21.342Z,58.95
2023-05-16T09:54:50.259Z,57.76
2023-05-16T09:57:22.092Z,57.85
2023-05-16T09:59:50.372Z,57.36
2023-05-16T10:02:19.354Z,56.16
2023-05-16T10:04:47.554Z,57.08
2023-05-16T10:07:17.253Z,57.73
2023-05-16T10:09:46.438Z,55.34
2023-05-16T10:12:15.880Z,53.60
2023-05-16T10:14:49.236Z,53.62
2023-05-16T10:17:18.385Z,51.83
2023-05-16T10:19:47.634Z,52.93
2023-05-16T10:22:17.047Z,52.77
2023-05-16T10:25:08.135Z,53.66
2023-05-16T10:27:36.576Z,53.82
2023-05-16T10:30:06.062Z,53.90
2023-05-16T10:32:34.664Z,54.58
2023-05-16T10:35:04.764Z,52.77
2023-05-16T10:37:33.728Z,53.35
2023-05-16T10:40:02.827Z,53.80
2023-05-16T10:42:32.892Z,54.30
2023-05-16T10:45:18.086Z,53.87
2023-05-16T10:47:56.953Z,53.08
2023-05-16T10:50:44.651Z,51.58
2023-05-16T10:53:18.929Z,51.23
2023-05-16T10:55:58.977Z,52.06
2023-05-16T10:58:39.094Z,52.30
2023-05-16T11:01:18.225Z,53.24
2023-05-16T11:04:12.340Z,53.72
2023-05-16T11:06:40.753Z,53.37
2023-05-16T11:09:13.529Z,53.26
2023-05-16T11:12:54.532Z,51.15
2023-05-16T11:17:29.461Z,53.16
2023-05-16T11:21:04.128Z,53.73
2023-05-16T11:23:32.216Z,52.77
2023-05-16T11:26:01.404Z,49.22
2023-05-16T11:28:30.268Z,50.83
2023-05-16T11:31:00.194Z,50.67
2023-05-16T11:33:35.489Z,51.60
2023-05-16T11:38:43.634Z,50.79
2023-05-16T11:41:12.553Z,50.24
2023-05-16T11:43:42.956Z,49.87
2023-05-16T11:46:14.809Z,49.68
2023-05-16T11:48:43.870Z,50.37
2023-05-16T11:51:12.104Z,49.72
2023-05-16T11:53:40.158Z,49.54
2023-05-16T11:56:09.077Z,49.54
2023-05-16T11:58:38.671Z,49.97
2023-05-16T12:01:06.839Z,49.92
2023-05-16T12:03:35.958Z,49.53
2023-05-16T12:06:04.469Z,49.38
2023-05-16T12:08:33.011Z,49.24
2023-05-16T12:11:00.985Z,48.93
2023-05-16T12:13:29.230Z,48.42
2023-05-16T12:15:57.350Z,48.92
2023-05-16T12:18:25.533Z,47.97
2023-05-16T12:20:54.095Z,48.05
2023-05-16T12:23:22.202Z,48.04
2023-05-16T12:25:50.695Z,47.94
2023-05-16T12:28:18.626Z,47.81
2023-05-16T12:30:48.265Z,47.70
2023-05-16T12:33:17.390Z,47.77
2023-05-16T12:35:47.900Z,47.89
2023-05-16T12:38:17.562Z,47.36
2023-05-16T12:40:46.673Z,47.58
2023-05-16T12:43:16.540Z,48.02
2023-05-16T12:45:54.034Z,48.15
2023-05-16T12:48:23.642Z,48.47
2023-05-16T12:50:51.552Z,48.53
2023-05-16T12:53:19.538Z,48.83
2023-05-16T12:55:48.827Z,49.25
2023-05-16T12:58:17.858Z,48.93
2023-05-16T13:00:46.014Z,49.31
2023-05-16T13:03:14.121Z,49.53
2023-05-16T13:05:42.380Z,49.26
2023-05-16T13:08:10.429Z,49.54
2023-05-16T13:10:38.461Z,50.02
2023-05-16T13:13:06.394Z,50.07
2023-05-16T13:15:34.440Z,49.62
2023-05-16T13:18:02.571Z,50.06
2023-05-16T13:20:30.908Z,50.16
2023-05-16T13:22:58.927Z,50.12
2023-05-16T13:25:27.487Z,50.75
2023-05-16T13:27:55.664Z,50.42
2023-05-16T13:30:24.748Z,50.97
2023-05-16T13:32:52.922Z,50.81
2023-05-16T13:35:22.419Z,51.31
2023-05-16T13:37:50.732Z,52.01
2023-05-16T13:40:18.714Z,51.98
2023-05-16T13:42:47.089Z,51.89
2023-05-16T13:45:15.141Z,52.27
2023-05-16T13:47:43.194Z,52.63
2023-05-16T13:50:12.358Z,52.79
2023-05-16T13:52:40.612Z,53.00
2023-05-16T13:55:09.731Z,52.97
2023-05-16T13:57:38.498Z,53.05
2023-05-16T14:02:43.657Z,53.16
2023-05-16T14:05:11.765Z,53.21
2023-05-16T14:07:39.730Z,53.29
2023-05-16T14:10:08.722Z,53.69
2023-05-16T14:12:37.489Z,53.74
2023-05-16T14:15:05.990Z,53.68
2023-05-16T14:17:33.979Z,54.02
2023-05-16T14:20:02.085Z,54.22
2023-05-16T14:22:30.081Z,54.02
2023-05-16T14:24:58.113Z,54.98
2023-05-16T14:27:26.047Z,54.84
2023-05-16T14:29:53.969Z,54.86
2023-05-16T14:32:22.249Z,54.83
2023-05-16T14:34:50.460Z,55.20
2023-05-16T14:37:18.657Z,55.39
2023-05-16T14:39:47.514Z,56.31
2023-05-16T14:42:15.471Z,56.16
2023-05-16T14:44:43.576Z,56.24
2023-05-16T14:47:11.916Z,56.58
2023-05-16T14:49:40.815Z,56.56
2023-05-16T14:52:08.827Z,56.43
2023-05-16T14:54:36.999Z,56.75
2023-05-16T14:57:05.236Z,57.07
2023-05-16T14:59:33.284Z,57.25
2023-05-16T15:02:01.382Z,57.70
2023-05-16T15:04:29.452Z,58.41
2023-05-16T15:06:57.454Z,59.16
2023-05-16T15:09:25.476Z,60.47
2023-05-16T15:11:53.386Z,60.53
2023-05-16T15:14:21.284Z,60.96
2023-05-16T15:16:49.390Z,61.54
2023-05-16T15:19:17.668Z,63.38
2023-05-16T15:21:46.267Z,65.07
2023-05-16T15:24:14.464Z,64.95
2023-05-16T15:26:43.099Z,64.79
2023-05-16T15:29:11.341Z,63.02
2023-05-16T15:31:39.519Z,62.51
2023-05-16T15:34:08.741Z,63.02
2023-05-16T15:36:36.694Z,63.51
2023-05-16T15:39:04.668Z,64.02
2023-05-16T15:44:05.543Z,65.06
2023-05-16T15:46:34.383Z,66.13
2023-05-16T15:49:02.685Z,67.07
2023-05-16T15:51:31.106Z,66.78
2023-05-16T15:53:59.213Z,67.26
2023-05-16T15:56:27.421Z,67.34
2023-05-16T15:58:56.193Z,67.48
2023-05-16T16:01:24.171Z,67.86
2023-05-16T16:03:52.328Z,68.33
2023-05-16T16:06:21.567Z,68.39
2023-05-16T16:08:49.563Z,69.76
2023-05-16T16:11:20.249Z,69.29
2023-05-16T16:13:48.779Z,69.83
2023-05-16T16:16:17.380Z,69.35
2023-05-16T16:18:45.858Z,69.91
2023-05-16T16:21:14.133Z,69.84
2023-05-16T16:23:42.764Z,70.50
2023-05-16T16:26:10.797Z,70.98
2023-05-16T16:28:38.713Z,71.34
2023-05-16T16:31:06.744Z,71.49
2023-05-16T16:33:34.781Z,72.02
2023-05-16T16:36:02.920Z,72.53
2023-05-16T16:38:30.964Z,73.00
2023-05-16T16:40:58.922Z,74.46
2023-05-16T16:43:26.947Z,77.96
2023-05-16T16:45:54.954Z,78.36
2023-05-16T16:48:22.904Z,77.76
2023-05-16T16:50:52.344Z,78.81
2023-05-16T16:53:20.336Z,80.72
2023-05-16T16:55:48.206Z,79.37
2023-05-16T16:58:16.340Z,80.53
2023-05-16T17:00:44.909Z,80.57
2023-05-16T17:03:12.870Z,79.07
2023-05-16T17:05:42.302Z,78.80
2023-05-16T17:08:10.265Z,79.55
2023-05-16T17:10:38.677Z,77.22
2023-05-16T17:13:10.457Z,76.66
2023-05-16T17:15:38.780Z,76.62
2023-05-16T17:18:07.775Z,76.76
2023-05-16T17:20:36.634Z,77.15
2023-05-16T17:23:04.663Z,77.34
2023-05-16T17:25:32.599Z,77.96
2023-05-16T17:28:00.573Z,77.76
2023-05-16T17:30:28.630Z,77.77
2023-05-16T17:32:56.762Z,78.77
2023-05-16T17:35:24.768Z,78.98
2023-05-16T17:37:53.053Z,79.54
2023-05-16T17:40:21.857Z,79.95
2023-05-16T17:42:51.478Z,80.03
2023-05-16T17:45:19.878Z,81.34
2023-05-16T17:47:48.799Z,82.97
2023-05-16T17:50:16.983Z,85.05
2023-05-16T17:52:44.929Z,87.42
2023-05-16T17:55:13.645Z,87.34
2023-05-16T17:57:41.933Z,85.99
2023-05-16T18:00:10.414Z,86.80
2023-05-16T18:02:39.960Z,87.05
2023-05-16T18:05:08.399Z,87.51
2023-05-16T18:07:36.492Z,87.82
2023-05-16T18:10:05.170Z,87.82
2023-05-16T18:12:33.236Z,87.19
2023-05-16T18:15:01.366Z,87.43
2023-05-16T18:17:29.878Z,87.61
2023-05-16T18:19:58.841Z,89.81
2023-05-16T18:22:28.079Z,88.94
2023-05-16T18:24:56.047Z,88.30
2023-05-16T18:27:24.003Z,87.98
2023-05-16T18:29:52.052Z,88.06
2023-05-16T18:32:20.994Z,88.02
2023-05-16T18:34:49.381Z,88.09
2023-05-16T18:37:17.649Z,87.97
2023-05-16T18:39:45.775Z,87.32
2023-05-16T18:42:13.756Z,88.14
2023-05-16T18:44:41.703Z,87.96
2023-05-16T18:47:10.724Z,87.92
2023-05-16T18:49:39.518Z,87.05
2023-05-16T18:52:11.485Z,86.60
2023-05-16T18:54:39.644Z,86.60
2023-05-16T18:57:07.958Z,86.75
2023-05-16T18:59:36.128Z,87.20
2023-05-16T19:02:04.755Z,87.15
2023-05-16T19:04:33.024Z,87.45
2023-05-16T19:07:03.164Z,88.10
2023-05-16T19:09:33.076Z,87.85
2023-05-16T19:12:01.111Z,88.09
2023-05-16T19:14:29.364Z,88.67
2023-05-16T19:16:57.333Z,89.18
2023-05-16T19:19:27.865Z,88.91
2023-05-16T19:21:56.394Z,89.12
2023-05-16T19:24:24.441Z,89.85
2023-05-16T19:26:52.869Z,91.43
2023-05-16T19:29:22.488Z,92.71
2023-05-16T19:31:50.593Z,92.47
2023-05-16T19:34:21.297Z,94.66
2023-05-16T19:36:49.367Z,94.47
2023-05-16T19:39:17.354Z,94.43
2023-05-16T19:41:51.650Z,95.04
2023-05-16T19:44:21.378Z,95.75
2023-05-16T19:46:49.396Z,96.06
2023-05-16T19:49:19.619Z,95.98
2023-05-16T19:51:48.456Z,96.30
2023-05-16T19:54:16.594Z,97.17
2023-05-16T19:56:44.571Z,97.29
2023-05-16T19:59:12.536Z,98.04
2023-05-16T20:04:10.051Z,96.81
2023-05-16T20:06:38.363Z,96.69
2023-05-16T20:09:06.556Z,96.67
2023-05-16T20:11:34.593Z,96.77
2023-05-16T20:14:02.836Z,96.56
2023-05-16T20:16:30.992Z,97.28
2023-05-16T20:18:59.062Z,98.20
2023-05-16T20:21:27.148Z,98.27
2023-05-16T20:23:55.285Z,98.88
2023-05-16T20:26:23.366Z,99.86
2023-05-16T20:28:51.331Z,99.43
2023-05-16T20:31:19.287Z,99.65
2023-05-16T20:33:47.336Z,99.96
2023-05-16T20:36:15.490Z,100.00
2023-05-16T20:38:43.498Z,100.00
2023-05-16T20:41:11.540Z,99.96
2023-05-16T20:43:39.512Z,100.00
2023-05-16T20:46:07.487Z,100.00
2023-05-16T20:48:35.534Z,100.00
2023-05-16T20:51:04.811Z,100.00
2023-05-16T20:53:32.851Z,100.00
2023-05-16T20:56:00.861Z,100.00
2023-05-16T20:58:28.852Z,100.00
2023-05-16T21:00:56.825Z,100.00
2023-05-16T21:03:24.817Z,100.00
2023-05-16T21:05:53.124Z,100.00
2023-05-16T21:08:22.933Z,100.00
2023-05-16T21:10:51.186Z,100.00
2023-05-16T21:13:19.378Z,100.00
2023-05-16T21:15:47.369Z,100.00
2023-05-16T21:18:15.423Z,100.00
2023-05-16T21:20:43.452Z,100.00
2023-05-16T21:23:12.097Z,100.00
2023-05-16T21:25:41.254Z,100.00
2023-05-16T21:28:09.275Z,100.00
2023-05-16T21:30:37.258Z,100.00
2023-05-16T21:33:05.289Z,100.00
2023-05-16T21:35:33.829Z,100.00
2023-05-16T21:38:01.831Z,100.00
2023-05-16T21:40:29.832Z,100.00
2023-05-16T21:42:57.785Z,100.00
2023-05-16T21:45:26.106Z,100.00
2023-05-16T21:47:54.975Z,100.00
2023-05-16T21:50:23.040Z,100.00
2023-05-16T21:52:51.236Z,100.00
2023-05-16T21:55:19.203Z,100.00
2023-05-16T21:57:47.180Z,100.00
2023-05-16T22:00:15.998Z,100.00
2023-05-16T22:02:44.829Z,100.00
2023-05-16T22:05:14.812Z,100.00
2023-05-16T22:07:43.201Z,100.00
2023-05-16T22:10:11.852Z,100.00
2023-05-16T22:12:39.742Z,100.00
2023-05-16T22:15:08.179Z,100.00
2023-05-16T22:17:36.171Z,100.00
2023-05-16T22:20:04.441Z,100.00
2023-05-16T22:22:32.473Z,100.00
2023-05-16T22:25:00.797Z,100.00
2023-05-16T22:27:28.741Z,100.00
2023-05-16T22:29:56.650Z,100.00
2023-05-16T22:32:24.714Z,100.00
2023-05-16T22:34:53.020Z,100.00
2023-05-16T22:37:20.908Z,100.00
2023-05-16T22:39:48.883Z,100.00
2023-05-16T22:42:16.828Z,100.00
2023-05-16T22:44:44.826Z,100.00
2023-05-16T22:47:12.744Z,100.00
2023-05-16T22:49:40.743Z,100.00
2023-05-16T22:52:08.705Z,100.00
2023-05-16T22:54:36.609Z,100.00
2023-05-16T22:57:04.661Z,100.00
2023-05-16T22:59:32.937Z,100.00
2023-05-16T23:02:00.901Z,100.00
2023-05-16T23:04:28.925Z,100.00
2023-05-16T23:06:56.901Z,100.00
2023-05-16T23:09:25.006Z,100.00
2023-05-16T23:11:52.972Z,100.00
2023-05-16T23:14:20.917Z,100.00
2023-05-16T23:16:48.862Z,100.00
2023-05-16T23:19:17.042Z,100.00
2023-05-16T23:21:45.222Z,100.00
2023-05-16T23:24:13.642Z,100.00
2023-05-16T23:26:41.595Z,100.00
2023-05-16T23:29:09.636Z,100.00
2023-05-16T23:31:37.582Z,100.00
2023-05-16T23:34:05.661Z,100.00
2023-05-16T23:36:33.711Z,100.00
2023-05-16T23:39:01.666Z,100.00
2023-05-16T23:41:29.583Z,100.00
2023-05-16T23:43:57.522Z,100.00
2023-05-16T23:46:25.685Z,100.00
2023-05-16T23:48:53.631Z,100.00
2023-05-16T23:51:21.827Z,100.00
2023-05-16T23:53:49.711Z,100.00
2023-05-16T23:56:17.658Z,100.00
2023-05-16T23:58:45.601Z,100.00
